createdAt,value
2023-01-17T00:00:41.150Z,19.70
2023-01-17T00:04:03.528Z,14.05
2023-01-17T00:07:25.985Z,14.20
2023-01-17T00:10:30.331Z,8.70
2023-01-17T00:13:34.187Z,13.10
2023-01-17T00:16:37.187Z,13.95
2023-01-17T00:20:12.981Z,9.35
2023-01-17T00:23:36.048Z,8.80
2023-01-17T00:27:03.690Z,6.07
2023-01-17T00:30:07.762Z,15.77
2023-01-17T00:33:10.966Z,7.40
2023-01-17T00:36:15.024Z,23.15
2023-01-17T00:39:17.829Z,21.77
2023-01-17T00:42:24.579Z,20.03
2023-01-17T00:45:47.474Z,21.67
2023-01-17T00:49:10.279Z,16.08
2023-01-17T00:52:32.304Z,49.03
2023-01-17T00:55:55.168Z,45.60
2023-01-17T00:59:20.088Z,67.60
2023-01-17T01:02:45.118Z,62.67
2023-01-17T01:06:08.497Z,30.33
2023-01-17T01:09:30.379Z,40.08
2023-01-17T01:12:52.613Z,56.90
2023-01-17T01:16:14.848Z,32.37
2023-01-17T01:19:36.197Z,43.67
2023-01-17T01:22:58.075Z,18.13
2023-01-17T01:26:26.163Z,11.27
2023-01-17T01:29:47.433Z,7.88
2023-01-17T01:33:09.191Z,10.77
2023-01-17T01:36:13.221Z,10.48
2023-01-17T01:39:17.761Z,31.20
2023-01-17T01:42:21.614Z,14.68
2023-01-17T01:45:28.060Z,12.23
2023-01-17T01:48:44.349Z,25.70
2023-01-17T01:52:02.377Z,43.63
2023-01-17T01:55:17.025Z,78.78
2023-01-17T01:58:25.716Z,53.83
2023-01-17T02:01:30.232Z,161.45
2023-01-17T02:04:35.129Z,231.18
2023-01-17T02:07:47.333Z,255.65
2023-01-17T02:10:55.668Z,245.67
2023-01-17T02:13:58.842Z,316.75
2023-01-17T02:17:24.208Z,303.88
2023-01-17T02:20:48.669Z,306.63
2023-01-17T02:24:10.338Z,269.77
2023-01-17T02:27:39.953Z,315.88
2023-01-17T02:31:00.977Z,244.38
2023-01-17T02:34:31.403Z,271.37
2023-01-17T02:37:47.436Z,230.65
2023-01-17T02:41:01.139Z,194.35
2023-01-17T02:44:11.509Z,179.00
2023-01-17T02:47:38.664Z,188.82
2023-01-17T02:50:52.585Z,171.35
2023-01-17T02:54:23.537Z,173.05
2023-01-17T02:58:05.916Z,214.57
2023-01-17T03:01:28.466Z,186.82
2023-01-17T03:04:56.519Z,214.05
2023-01-17T03:08:01.931Z,153.25
2023-01-17T03:11:05.282Z,81.88
2023-01-17T03:14:09.314Z,54.25
2023-01-17T03:17:12.973Z,52.00
2023-01-17T03:20:17.523Z,30.00
2023-01-17T03:23:20.542Z,27.15
2023-01-17T03:26:24.648Z,33.95
2023-01-17T03:29:30.959Z,27.48
2023-01-17T03:32:34.989Z,20.30
2023-01-17T03:35:38.342Z,25.30
2023-01-17T03:38:42.428Z,24.20
2023-01-17T03:41:45.734Z,16.83
2023-01-17T03:44:49.257Z,18.88
2023-01-17T03:47:58.289Z,25.83
2023-01-17T03:51:02.135Z,40.08
2023-01-17T03:54:05.723Z,57.23
2023-01-17T03:57:09.188Z,139.20
2023-01-17T04:00:13.079Z,106.28
2023-01-17T04:03:17.427Z,101.70
2023-01-17T04:06:24.065Z,83.83
2023-01-17T04:09:28.349Z,65.95
2023-01-17T04:12:34.191Z,55.50
2023-01-17T04:15:38.260Z,46.33
2023-01-17T04:18:42.113Z,55.42
2023-01-17T04:21:45.383Z,34.67
2023-01-17T04:24:48.957Z,47.08
2023-01-17T04:27:55.988Z,42.92
2023-01-17T04:31:00.589Z,30.52
2023-01-17T04:34:04.251Z,29.33
2023-01-17T04:37:07.583Z,29.30
2023-01-17T04:40:12.031Z,24.30
2023-01-17T04:43:16.860Z,23.98
2023-01-17T04:46:20.499Z,32.00
2023-01-17T04:49:26.055Z,25.92
2023-01-17T04:52:29.560Z,21.63
2023-01-17T04:55:32.832Z,20.17
2023-01-17T04:58:35.963Z,17.60
2023-01-17T05:01:39.918Z,18.52
2023-01-17T05:04:43.647Z,19.80
2023-01-17T05:07:55.239Z,13.98
2023-01-17T05:10:58.462Z,20.23
2023-01-17T05:14:01.863Z,20.48
2023-01-17T05:17:04.785Z,19.38
2023-01-17T05:20:09.897Z,21.02
2023-01-17T05:23:12.864Z,7.18
2023-01-17T05:26:16.303Z,8.63
2023-01-17T05:29:19.438Z,18.30
2023-01-17T05:32:22.562Z,9.13
2023-01-17T05:35:29.335Z,9.05
2023-01-17T05:38:32.437Z,16.35
2023-01-17T05:41:35.511Z,13.80
2023-01-17T05:44:39.406Z,9.63
2023-01-17T05:47:45.824Z,19.42
2023-01-17T05:50:50.214Z,20.33
2023-01-17T05:53:56.538Z,23.05
2023-01-17T05:57:00.173Z,19.27
2023-01-17T06:00:03.974Z,10.83
2023-01-17T06:03:07.662Z,20.73
2023-01-17T06:06:11.313Z,15.50
2023-01-17T06:09:14.644Z,28.02
2023-01-17T06:12:18.591Z,16.33
2023-01-17T06:15:22.041Z,17.30
2023-01-17T06:18:27.144Z,13.95
2023-01-17T06:21:31.636Z,15.15
2023-01-17T06:24:34.759Z,17.30
2023-01-17T06:27:38.103Z,16.90
2023-01-17T06:30:42.532Z,12.90
2023-01-17T06:33:45.901Z,17.23
2023-01-17T06:36:54.966Z,22.17
2023-01-17T06:39:59.176Z,17.90
2023-01-17T06:43:05.467Z,20.67
2023-01-17T06:46:08.560Z,16.90
2023-01-17T06:49:12.710Z,28.35
2023-01-17T06:52:15.710Z,20.02
2023-01-17T06:55:23.182Z,23.33
2023-01-17T06:58:26.975Z,33.28
2023-01-17T07:01:30.510Z,24.20
2023-01-17T07:04:35.455Z,38.80
2023-01-17T07:07:39.270Z,21.47
2023-01-17T07:10:45.531Z,20.40
2023-01-17T07:13:49.948Z,19.15
2023-01-17T07:16:53.408Z,17.80
2023-01-17T07:19:57.234Z,23.57
2023-01-17T07:23:00.942Z,26.95
2023-01-17T07:26:08.091Z,26.80
2023-01-17T07:29:11.357Z,21.55
2023-01-17T07:32:15.489Z,28.27
2023-01-17T07:35:18.496Z,31.98
2023-01-17T07:38:22.823Z,50.42
2023-01-17T07:41:26.130Z,23.65
2023-01-17T07:44:29.490Z,26.53
2023-01-17T07:47:34.659Z,28.08
2023-01-17T07:50:39.458Z,28.30
2023-01-17T07:53:43.130Z,34.05
2023-01-17T07:56:48.167Z,23.45
2023-01-17T07:59:54.157Z,16.00
2023-01-17T08:02:59.255Z,23.10
2023-01-17T08:06:04.080Z,15.05
2023-01-17T08:09:07.099Z,25.87
2023-01-17T08:12:11.536Z,15.50
2023-01-17T08:15:16.686Z,18.45
2023-01-17T08:18:19.784Z,17.17
2023-01-17T08:21:24.330Z,15.00
2023-01-17T08:24:28.197Z,23.75
2023-01-17T08:27:35.605Z,15.13
2023-01-17T08:30:40.468Z,22.33
2023-01-17T08:33:44.043Z,24.37
2023-01-17T08:36:48.534Z,28.42
2023-01-17T08:39:51.703Z,16.48
2023-01-17T08:43:00.391Z,21.45
2023-01-17T08:46:04.442Z,55.23
2023-01-17T08:49:07.811Z,21.17
2023-01-17T08:52:13.728Z,31.08
2023-01-17T08:55:17.647Z,26.63
2023-01-17T08:58:20.680Z,26.23
2023-01-17T09:01:23.910Z,24.48
2023-01-17T09:04:27.372Z,29.88
2023-01-17T09:07:31.075Z,27.38
2023-01-17T09:10:35.424Z,17.80
2023-01-17T09:13:39.374Z,20.27
2023-01-17T09:16:43.993Z,21.48
2023-01-17T09:19:49.193Z,9.48
2023-01-17T09:22:53.195Z,16.33
2023-01-17T09:25:59.429Z,10.02
2023-01-17T09:29:03.166Z,13.25
2023-01-17T09:32:07.497Z,13.48
2023-01-17T09:35:12.053Z,17.33
2023-01-17T09:38:15.859Z,15.57
2023-01-17T09:41:25.132Z,8.50
2023-01-17T09:44:42.231Z,10.60
2023-01-17T09:47:56.372Z,11.35
2023-01-17T09:51:19.688Z,16.52
2023-01-17T09:54:31.919Z,13.07
2023-01-17T09:58:06.595Z,11.23
2023-01-17T10:01:58.763Z,16.90
2023-01-17T10:05:32.895Z,18.10
2023-01-17T10:08:55.731Z,16.13
2023-01-17T10:12:40.322Z,27.17
2023-01-17T10:15:58.175Z,13.27
2023-01-17T10:19:28.732Z,32.72
2023-01-17T10:23:10.812Z,8.48
2023-01-17T10:26:26.038Z,17.48
2023-01-17T10:29:36.365Z,9.23
2023-01-17T10:32:48.442Z,9.73
2023-01-17T10:36:05.054Z,11.65
2023-01-17T10:39:34.966Z,14.63
2023-01-17T10:42:54.850Z,10.90
2023-01-17T10:46:01.837Z,14.17
2023-01-17T10:49:05.622Z,21.02
2023-01-17T10:52:23.406Z,11.20
2023-01-17T10:56:01.757Z,13.60
2023-01-17T10:59:30.492Z,8.00
2023-01-17T11:02:37.427Z,13.50
2023-01-17T11:05:43.528Z,7.55
2023-01-17T11:09:11.233Z,9.67
2023-01-17T11:12:42.177Z,11.77
2023-01-17T11:15:52.900Z,15.35
2023-01-17T11:19:17.394Z,16.10
2023-01-17T11:22:21.586Z,7.47
2023-01-17T11:25:28.505Z,23.92
2023-01-17T11:28:34.078Z,16.00
2023-01-17T11:31:37.138Z,10.23
2023-01-17T11:34:40.557Z,10.97
2023-01-17T11:37:59.283Z,5.35
2023-01-17T11:41:22.579Z,8.23
2023-01-17T11:44:35.864Z,9.75
2023-01-17T11:47:39.587Z,8.73
2023-01-17T11:50:58.795Z,6.65
2023-01-17T11:54:26.835Z,3.47
2023-01-17T11:57:35.086Z,6.63
2023-01-17T12:00:47.579Z,29.33
2023-01-17T12:04:25.744Z,16.10
2023-01-17T12:07:45.531Z,4.35
2023-01-17T12:11:05.841Z,6.93
2023-01-17T12:14:32.148Z,7.72
2023-01-17T12:17:58.934Z,5.07
2023-01-17T12:21:34.936Z,9.10
2023-01-17T12:24:50.692Z,17.88
2023-01-17T12:28:12.397Z,7.22
2023-01-17T12:31:30.523Z,7.07
2023-01-17T12:34:47.751Z,10.53
2023-01-17T12:38:05.302Z,7.07
2023-01-17T12:41:30.121Z,11.18
2023-01-17T12:44:45.532Z,12.10
2023-01-17T12:47:55.073Z,8.38
2023-01-17T12:51:06.556Z,9.20
2023-01-17T12:54:20.477Z,12.38
2023-01-17T12:57:32.971Z,9.90
2023-01-17T13:00:40.208Z,10.38
2023-01-17T13:04:01.082Z,11.90
2023-01-17T13:07:58.048Z,12.35
2023-01-17T13:11:16.811Z,16.63
2023-01-17T13:14:20.807Z,13.73
2023-01-17T13:17:47.589Z,18.80
2023-01-17T13:21:14.833Z,7.07
2023-01-17T13:24:49.726Z,7.18
2023-01-17T13:28:01.339Z,7.35
2023-01-17T13:31:19.859Z,13.73
2023-01-17T13:34:42.585Z,12.60
2023-01-17T13:38:07.542Z,9.85
2023-01-17T13:42:03.768Z,16.00
2023-01-17T13:45:18.751Z,15.75
2023-01-17T13:48:23.234Z,36.05
2023-01-17T13:52:05.342Z,57.05
2023-01-17T13:56:05.245Z,91.20
2023-01-17T13:59:31.157Z,112.93
2023-01-17T14:02:34.417Z,66.85
2023-01-17T14:05:41.574Z,77.40
2023-01-17T14:08:47.181Z,83.55
2023-01-17T14:12:25.869Z,59.47
2023-01-17T14:15:32.296Z,71.10
2023-01-17T14:18:44.017Z,40.25
2023-01-17T14:21:49.425Z,58.13
2023-01-17T14:25:14.688Z,80.05
2023-01-17T14:28:30.239Z,40.47
2023-01-17T14:31:37.901Z,126.25
2023-01-17T14:34:43.750Z,40.30
2023-01-17T14:37:58.123Z,25.58
2023-01-17T14:41:08.397Z,35.85
2023-01-17T14:44:12.398Z,29.93
2023-01-17T14:47:16.497Z,43.13
2023-01-17T14:50:23.812Z,28.98
2023-01-17T14:53:30.319Z,32.97
2023-01-17T14:56:35.198Z,24.33
2023-01-17T14:59:38.573Z,33.53
2023-01-17T15:02:49.441Z,36.17
2023-01-17T15:05:55.945Z,16.70
2023-01-17T15:09:02.220Z,26.08
2023-01-17T15:12:12.079Z,28.25
2023-01-17T15:15:36.065Z,26.80
2023-01-17T15:18:42.682Z,35.03
2023-01-17T15:21:51.235Z,35.10
2023-01-17T15:24:58.294Z,42.17
2023-01-17T15:28:07.073Z,40.55
2023-01-17T15:31:23.686Z,91.25
2023-01-17T15:34:29.091Z,77.53
2023-01-17T15:37:36.463Z,122.37
2023-01-17T15:40:44.389Z,98.78
2023-01-17T15:43:48.311Z,88.15
2023-01-17T15:46:52.020Z,109.57
2023-01-17T15:49:55.222Z,111.55
2023-01-17T15:53:05.875Z,65.05
2023-01-17T15:56:35.955Z,73.28
2023-01-17T15:59:53.038Z,57.63
2023-01-17T16:03:28.304Z,63.65
2023-01-17T16:06:46.162Z,50.35
2023-01-17T16:09:50.330Z,84.47
2023-01-17T16:12:56.684Z,41.40
2023-01-17T16:16:25.846Z,56.20
2023-01-17T16:19:35.528Z,36.57
2023-01-17T16:22:41.392Z,51.47
2023-01-17T16:25:56.383Z,18.98
2023-01-17T16:29:00.377Z,21.52
2023-01-17T16:32:11.490Z,15.05
2023-01-17T16:35:32.410Z,18.75
2023-01-17T16:38:36.513Z,18.13
2023-01-17T16:41:43.133Z,18.13
2023-01-17T16:44:47.101Z,21.75
2023-01-17T16:47:59.733Z,15.27
2023-01-17T16:51:06.883Z,27.77
2023-01-17T16:54:10.050Z,11.50
2023-01-17T16:57:17.718Z,11.40
2023-01-17T17:00:23.213Z,22.70
2023-01-17T17:03:27.684Z,38.10
2023-01-17T17:06:32.797Z,36.28
2023-01-17T17:09:36.816Z,14.70
2023-01-17T17:12:40.644Z,5.93
2023-01-17T17:15:45.518Z,43.40
2023-01-17T17:19:10.632Z,22.23
2023-01-17T17:22:14.140Z,35.53
2023-01-17T17:25:17.720Z,34.92
2023-01-17T17:28:21.735Z,62.08
2023-01-17T17:31:28.925Z,50.53
2023-01-17T17:34:37.312Z,36.67
2023-01-17T17:37:43.496Z,35.65
2023-01-17T17:40:53.656Z,38.85
2023-01-17T17:43:57.800Z,34.10
2023-01-17T17:47:12.464Z,20.48
2023-01-17T17:50:17.923Z,34.83
2023-01-17T17:53:28.209Z,19.33
2023-01-17T17:56:33.300Z,9.38
2023-01-17T17:59:37.500Z,19.20
2023-01-17T18:02:40.594Z,25.45
2023-01-17T18:05:50.655Z,17.10
2023-01-17T18:08:54.305Z,23.05
2023-01-17T18:11:59.161Z,15.05
2023-01-17T18:15:02.171Z,18.70
2023-01-17T18:18:05.852Z,16.63
2023-01-17T18:21:14.857Z,22.60
2023-01-17T18:24:20.502Z,34.93
2023-01-17T18:27:23.735Z,26.75
2023-01-17T18:30:27.585Z,16.65
2023-01-17T18:33:30.883Z,30.33
2023-01-17T18:36:35.490Z,49.05
2023-01-17T18:39:41.197Z,40.10
2023-01-17T18:42:44.695Z,39.95
2023-01-17T18:45:54.334Z,47.80
2023-01-17T18:49:02.044Z,34.88
2023-01-17T18:52:08.295Z,32.08
2023-01-17T18:55:11.678Z,41.57
2023-01-17T18:58:15.781Z,63.72
2023-01-17T19:01:24.027Z,39.70
2023-01-17T19:04:31.902Z,31.45
2023-01-17T19:07:38.302Z,38.15
2023-01-17T19:10:43.235Z,33.78
2023-01-17T19:13:46.558Z,27.90
2023-01-17T19:16:53.100Z,29.10
2023-01-17T19:19:57.181Z,31.13
2023-01-17T19:23:00.347Z,71.10
2023-01-17T19:26:05.211Z,46.90
2023-01-17T19:29:08.651Z,40.80
2023-01-17T19:32:12.231Z,39.78
2023-01-17T19:35:17.104Z,33.65
2023-01-17T19:38:28.093Z,35.85
2023-01-17T19:41:32.774Z,48.47
2023-01-17T19:44:41.760Z,62.10
2023-01-17T19:47:55.086Z,49.47
2023-01-17T19:51:08.196Z,42.30
2023-01-17T19:54:11.398Z,31.40
2023-01-17T19:57:18.435Z,28.87
2023-01-17T20:00:30.057Z,36.70
2023-01-17T20:03:33.940Z,36.25
2023-01-17T20:06:37.580Z,50.67
2023-01-17T20:09:41.535Z,43.22
2023-01-17T20:12:44.584Z,42.72
2023-01-17T20:15:47.789Z,43.05
2023-01-17T20:18:52.335Z,48.23
2023-01-17T20:21:56.103Z,51.33
2023-01-17T20:24:59.698Z,27.73
2023-01-17T20:28:05.451Z,31.70
2023-01-17T20:31:16.702Z,31.85
2023-01-17T20:34:20.910Z,56.50
2023-01-17T20:37:23.974Z,19.30
2023-01-17T20:40:27.215Z,44.92
2023-01-17T20:43:31.465Z,48.67
2023-01-17T20:46:41.761Z,33.58
2023-01-17T20:49:44.838Z,26.83
2023-01-17T20:52:50.496Z,27.27
2023-01-17T20:55:58.165Z,27.73
2023-01-17T20:59:16.297Z,62.80
2023-01-17T21:02:20.271Z,24.42
2023-01-17T21:05:26.818Z,24.92
2023-01-17T21:08:32.533Z,36.65
2023-01-17T21:11:38.423Z,36.85
2023-01-17T21:14:44.030Z,29.92
2023-01-17T21:17:48.151Z,16.08
2023-01-17T21:20:56.798Z,13.77
2023-01-17T21:24:02.653Z,16.50
2023-01-17T21:27:07.960Z,11.80
2023-01-17T21:30:13.276Z,26.53
2023-01-17T21:33:17.123Z,18.85
2023-01-17T21:36:25.825Z,16.30
2023-01-17T21:39:30.202Z,21.30
2023-01-17T21:42:38.423Z,18.80
2023-01-17T21:45:46.025Z,25.23
2023-01-17T21:48:50.265Z,26.58
2023-01-17T21:51:53.378Z,27.37
2023-01-17T21:55:15.431Z,68.30
2023-01-17T21:58:38.711Z,57.40
2023-01-17T22:01:41.842Z,43.33
2023-01-17T22:04:45.382Z,64.97
2023-01-17T22:08:07.250Z,52.22
2023-01-17T22:11:19.231Z,79.38
2023-01-17T22:14:22.333Z,86.80
2023-01-17T22:17:25.919Z,56.95
2023-01-17T22:20:29.338Z,54.33
2023-01-17T22:23:37.971Z,66.87
2023-01-17T22:26:42.011Z,59.42
2023-01-17T22:29:45.170Z,42.53
2023-01-17T22:32:51.549Z,13.90
2023-01-17T22:36:01.017Z,18.15
2023-01-17T22:39:10.471Z,12.73
2023-01-17T22:42:17.442Z,21.95
2023-01-17T22:45:22.085Z,27.00
2023-01-17T22:48:25.119Z,49.28
2023-01-17T22:51:32.005Z,25.13
2023-01-17T22:54:41.703Z,78.93
2023-01-17T22:57:47.670Z,83.50
2023-01-17T23:00:51.506Z,78.18
2023-01-17T23:04:06.341Z,116.40
2023-01-17T23:07:09.621Z,109.80
2023-01-17T23:10:35.231Z,90.35
2023-01-17T23:13:38.585Z,64.40
2023-01-17T23:17:11.072Z,60.88
2023-01-17T23:20:17.047Z,47.20
2023-01-17T23:23:21.103Z,28.20
2023-01-17T23:26:24.255Z,21.83
2023-01-17T23:29:28.643Z,29.63
2023-01-17T23:32:32.550Z,33.72
2023-01-17T23:35:42.109Z,34.63
2023-01-17T23:38:46.332Z,61.80
2023-01-17T23:42:07.978Z,95.03
2023-01-17T23:45:11.453Z,106.88
2023-01-17T23:48:15.886Z,42.22
2023-01-17T23:51:19.512Z,39.03
2023-01-17T23:54:22.586Z,51.30
2023-01-17T23:57:26.705Z,30.70
